Time;durP1;ratioP1;P1;durP2;ratioP2;P2;SDS_P1;SDS_P2;PMS_P1;PMS_P2;Temp;Humidity;BMP_temperature;BMP_pressure;BME280_temperature;BME280_humidity;BME280_pressure;Samples;Min_cycle;Max_cycle;Signal;HPM_P1;HPM_P2
2022/11/17 00:00:07;;;;;;;26.05;17.13;;;9.10;99.90;;;;;;5079111;28;20047;-65
2022/11/17 00:02:33;;;;;;;25.67;17.55;;;9.00;99.90;;;;;;5066233;28;20041;-65
2022/11/17 00:04:58;;;;;;;23.05;17.17;;;9.00;99.90;;;;;;5107154;28;20055;-65
2022/11/17 00:07:24;;;;;;;23.73;18.85;;;9.10;99.90;;;;;;5102450;28;20048;-65
2022/11/17 00:09:50;;;;;;;25.23;16.63;;;9.00;99.90;;;;;;5058731;28;20045;-65
2022/11/17 00:14:59;;;;;;;22.10;16.23;;;9.00;99.90;;;;;;5060897;28;20136;-65
2022/11/17 00:17:25;;;;;;;24.40;16.73;;;9.00;99.90;;;;;;5086514;28;20048;-65
2022/11/17 00:22:40;;;;;;;23.58;17.83;;;9.00;99.90;;;;;;5055184;28;20116;-65
2022/11/17 00:25:05;;;;;;;22.38;16.38;;;9.10;99.90;;;;;;5100449;28;20507;-65
2022/11/17 00:27:31;;;;;;;22.10;16.70;;;9.10;99.90;;;;;;5076682;28;20056;-65
2022/11/17 00:29:57;;;;;;;21.10;16.27;;;9.10;99.90;;;;;;5093327;28;20044;-65
2022/11/17 00:35:07;;;;;;;24.15;17.38;;;9.00;99.90;;;;;;5090204;28;20052;-65
2022/11/17 00:37:36;;;;;;;21.35;16.38;;;9.10;99.90;;;;;;5082839;28;20096;-65
2022/11/17 00:40:04;;;;;;;22.98;16.50;;;9.00;99.90;;;;;;5084957;28;20052;-65
2022/11/17 00:42:30;;;;;;;26.33;17.83;;;9.10;99.90;;;;;;5048361;28;20072;-65
2022/11/17 00:44:56;;;;;;;24.25;17.08;;;9.00;99.90;;;;;;5078809;28;20165;-65
2022/11/17 00:47:21;;;;;;;23.25;17.75;;;9.10;99.90;;;;;;5081834;28;20064;-65
2022/11/17 00:49:47;;;;;;;20.73;17.73;;;9.00;99.90;;;;;;5103688;28;20538;-65
2022/11/17 00:52:13;;;;;;;23.77;17.98;;;9.00;99.90;;;;;;5084790;28;20073;-65
2022/11/17 00:54:38;;;;;;;20.42;17.02;;;9.00;99.90;;;;;;5086280;28;20048;-65
2022/11/17 00:57:04;;;;;;;20.58;17.05;;;9.10;99.90;;;;;;5085300;28;20056;-65
2022/11/17 00:59:30;;;;;;;21.10;16.13;;;9.10;99.90;;;;;;5079190;28;20108;-65
2022/11/17 01:01:55;;;;;;;21.23;15.95;;;9.10;99.90;;;;;;5063457;28;20041;-65
2022/11/17 01:04:21;;;;;;;22.42;17.13;;;9.10;99.90;;;;;;5094598;28;20099;-65
2022/11/17 01:06:48;;;;;;;21.63;15.40;;;9.00;99.90;;;;;;5066898;28;20051;-65
2022/11/17 01:09:22;;;;;;;22.90;15.45;;;9.00;99.90;;;;;;5078166;28;20039;-65
2022/11/17 01:11:50;;;;;;;20.55;15.27;;;9.00;99.90;;;;;;5084471;28;20072;-65
2022/11/17 01:14:21;;;;;;;18.80;14.98;;;8.90;99.90;;;;;;5096734;28;20471;-65
2022/11/17 01:16:47;;;;;;;19.13;15.70;;;9.00;99.90;;;;;;5086262;28;20056;-65
2022/11/17 01:19:14;;;;;;;20.95;15.48;;;9.00;99.90;;;;;;5092667;28;20082;-65
2022/11/17 01:21:39;;;;;;;18.05;14.15;;;9.00;99.90;;;;;;5100951;28;20044;-65
2022/11/17 01:24:05;;;;;;;20.45;15.38;;;9.00;99.90;;;;;;5059786;28;20055;-65
2022/11/17 01:26:34;;;;;;;20.10;14.75;;;9.00;99.90;;;;;;5090173;28;20041;-65
2022/11/17 01:29:01;;;;;;;20.45;14.50;;;9.00;99.90;;;;;;5079640;28;20090;-65
2022/11/17 01:31:29;;;;;;;18.20;14.10;;;9.00;99.90;;;;;;5082349;28;20032;-65
2022/11/17 01:33:55;;;;;;;18.73;14.48;;;9.00;99.90;;;;;;5063876;28;20466;-65
2022/11/17 01:36:22;;;;;;;19.70;14.40;;;9.00;99.90;;;;;;5072620;28;20830;-65
2022/11/17 01:38:48;;;;;;;20.73;14.45;;;9.00;99.90;;;;;;5105802;28;20056;-65
2022/11/17 01:41:20;;;;;;;18.33;14.02;;;9.00;99.90;;;;;;5068460;28;20081;-65
2022/11/17 01:43:54;;;;;;;19.92;15.15;;;9.10;99.90;;;;;;5075306;28;1096818;-65
2022/11/17 01:46:27;;;;;;;17.50;14.65;;;9.00;99.90;;;;;;5084928;28;20056;-65
2022/11/17 01:49:06;;;;;;;18.23;14.80;;;9.00;99.90;;;;;;5077338;28;20056;-65
2022/11/17 01:51:34;;;;;;;19.30;14.27;;;9.00;99.90;;;;;;5064962;28;20554;-65
2022/11/17 01:54:01;;;;;;;18.88;14.18;;;8.90;99.90;;;;;;5075835;28;20044;-65
2022/11/17 01:56:34;;;;;;;24.45;16.63;;;9.10;99.90;;;;;;5074165;28;20058;-65
2022/11/17 01:59:07;;;;;;;19.73;15.07;;;9.00;99.90;;;;;;5044930;28;20080;-65
2022/11/17 02:01:33;;;;;;;20.50;15.75;;;9.00;99.90;;;;;;5050208;28;20062;-65
2022/11/17 02:03:59;;;;;;;21.65;15.10;;;9.00;99.90;;;;;;5062195;28;20041;-65
2022/11/17 02:06:34;;;;;;;17.88;14.27;;;9.00;99.90;;;;;;5061791;28;20047;-65
2022/11/17 02:09:02;;;;;;;19.40;15.18;;;9.00;99.90;;;;;;5048947;28;20497;-65
2022/11/17 02:11:34;;;;;;;16.42;13.73;;;9.00;99.90;;;;;;5054036;28;20049;-65
2022/11/17 02:14:02;;;;;;;19.90;14.70;;;9.00;99.90;;;;;;5065124;28;20053;-65
2022/11/17 02:16:28;;;;;;;16.92;14.25;;;9.00;99.90;;;;;;5058195;28;20513;-65
2022/11/17 02:18:53;;;;;;;19.52;14.15;;;9.00;99.90;;;;;;5066440;28;20052;-65
2022/11/17 02:21:49;;;;;;;17.73;14.07;;;9.00;99.90;;;;;;5046816;28;20049;-65
2022/11/17 02:24:17;;;;;;;18.15;14.50;;;9.00;99.90;;;;;;5045016;28;20053;-65
2022/11/17 02:27:18;;;;;;;17.25;14.02;;;9.00;99.90;;;;;;5045154;28;20071;-65
2022/11/17 02:29:49;;;;;;;19.95;14.98;;;9.00;99.90;;;;;;5048029;28;20058;-65
2022/11/17 02:32:17;;;;;;;17.38;14.18;;;8.90;99.90;;;;;;5072755;28;20059;-65
2022/11/17 02:34:52;;;;;;;17.63;14.80;;;8.90;99.90;;;;;;5071810;28;20048;-65
2022/11/17 02:37:41;;;;;;;19.00;14.68;;;8.90;99.90;;;;;;5045829;28;20056;-65
2022/11/17 02:40:26;;;;;;;18.75;14.30;;;9.00;99.90;;;;;;5067368;28;20071;-65
2022/11/17 02:45:55;;;;;;;18.98;15.38;;;9.00;99.90;;;;;;5060607;28;20105;-65
2022/11/17 02:48:46;;;;;;;18.50;15.25;;;8.90;99.90;;;;;;5048466;28;20045;-65
2022/11/17 02:51:17;;;;;;;18.10;14.52;;;8.90;99.90;;;;;;5052528;28;20049;-65
2022/11/17 02:53:43;;;;;;;17.48;14.82;;;9.00;99.90;;;;;;5062606;28;20045;-65
2022/11/17 02:56:09;;;;;;;19.77;15.65;;;8.90;99.90;;;;;;5078579;28;20061;-65
2022/11/17 02:58:35;;;;;;;19.27;16.55;;;8.90;99.90;;;;;;5044502;28;20060;-65
2022/11/17 03:01:32;;;;;;;20.02;15.70;;;9.00;99.90;;;;;;5052269;28;20079;-65
2022/11/17 03:04:04;;;;;;;22.60;15.95;;;8.80;99.90;;;;;;5065254;28;20060;-65
2022/11/17 03:06:34;;;;;;;22.00;16.10;;;8.90;99.90;;;;;;5030763;28;20055;-65
2022/11/17 03:09:14;;;;;;;20.90;16.33;;;8.90;99.90;;;;;;5061234;28;20045;-65
2022/11/17 03:11:48;;;;;;;21.63;16.52;;;8.80;99.90;;;;;;5084323;28;20396;-65
2022/11/17 03:14:26;;;;;;;20.90;16.45;;;8.70;99.90;;;;;;5069330;28;20055;-65
2022/11/17 03:17:43;;;;;;;19.73;14.75;;;8.70;99.90;;;;;;5067524;28;20045;-65
2022/11/17 03:20:21;;;;;;;19.50;15.68;;;8.70;99.90;;;;;;5022032;28;20081;-65
2022/11/17 03:23:11;;;;;;;19.85;16.05;;;8.70;99.90;;;;;;5007919;28;20526;-65
2022/11/17 03:25:38;;;;;;;20.63;15.57;;;8.60;99.90;;;;;;5023113;28;20054;-65
2022/11/17 03:28:07;;;;;;;20.27;15.95;;;8.60;99.90;;;;;;5024209;28;20049;-64
2022/11/17 03:30:39;;;;;;;21.42;15.30;;;8.70;99.90;;;;;;5005372;28;20065;-65
2022/11/17 03:33:14;;;;;;;18.23;15.05;;;8.70;99.90;;;;;;5023679;28;20076;-64
2022/11/17 03:35:44;;;;;;;19.33;15.20;;;8.70;99.90;;;;;;5024842;28;20046;-65
2022/11/17 03:38:14;;;;;;;21.40;16.00;;;8.70;99.90;;;;;;5026041;28;20105;-65
2022/11/17 03:40:43;;;;;;;20.27;15.85;;;8.70;99.90;;;;;;5007870;28;20085;-65
2022/11/17 03:43:13;;;;;;;17.85;14.60;;;8.60;99.90;;;;;;5024066;28;20046;-65
2022/11/17 03:45:43;;;;;;;17.20;14.00;;;8.60;99.90;;;;;;5008467;28;20050;-64
2022/11/17 03:48:22;;;;;;;17.38;13.88;;;8.70;99.90;;;;;;5012013;28;20049;-65
2022/11/17 03:51:12;;;;;;;19.77;15.85;;;8.60;99.90;;;;;;5029532;28;20054;-65
2022/11/17 03:53:39;;;;;;;;;;;8.60;99.90;;;;;;5019769;28;20050;-65
2022/11/17 03:56:12;;;;;;;19.35;15.02;;;8.50;99.90;;;;;;5040604;28;19975;-65
2022/11/17 03:58:45;;;;;;;19.67;15.32;;;8.60;99.90;;;;;;5059427;28;20052;-64
2022/11/17 04:01:12;;;;;;;18.67;14.93;;;8.60;99.90;;;;;;5087062;28;20037;-64
2022/11/17 04:03:39;;;;;;;18.73;15.48;;;8.50;99.90;;;;;;5088731;28;20048;-64
2022/11/17 04:06:05;;;;;;;19.45;15.18;;;8.50;99.90;;;;;;5060705;28;20362;-65
2022/11/17 04:08:30;;;;;;;17.48;14.70;;;8.40;99.90;;;;;;5088615;28;20055;-65
2022/11/17 04:16:25;;;;;;;18.58;15.25;;;8.50;99.90;;;;;;5091786;28;20044;-65
2022/11/17 04:18:51;;;;;;;16.92;14.45;;;8.40;99.90;;;;;;5077815;28;20052;-65
2022/11/17 04:21:17;;;;;;;20.17;15.13;;;8.40;99.90;;;;;;5091490;28;20032;-65
2022/11/17 04:23:42;;;;;;;18.25;14.10;;;8.40;99.90;;;;;;5076280;28;20063;-65
2022/11/17 04:28:54;;;;;;;17.70;13.80;;;8.50;99.90;;;;;;5051185;28;20056;-65
2022/11/17 04:31:26;;;;;;;18.70;14.45;;;8.40;99.90;;;;;;5071842;28;20044;-65
2022/11/17 04:33:54;;;;;;;20.33;15.43;;;8.30;99.90;;;;;;5089546;28;20044;-65
2022/11/17 04:36:25;;;;;;;17.17;14.75;;;8.20;99.90;;;;;;5095879;28;20087;-65
2022/11/17 04:38:53;;;;;;;17.50;15.60;;;8.30;99.90;;;;;;5069545;28;20052;-64
2022/11/17 04:44:07;;;;;;;16.42;14.32;;;8.30;99.90;;;;;;5083464;28;20073;-65
2022/11/17 04:46:34;;;;;;;19.05;14.25;;;8.20;99.90;;;;;;5080944;28;20045;-65
2022/11/17 04:49:00;;;;;;;18.40;14.60;;;8.20;99.90;;;;;;5089234;28;20047;-65
2022/11/17 04:51:27;;;;;;;18.80;14.93;;;8.10;99.90;;;;;;5068875;28;20548;-65
2022/11/17 04:53:54;;;;;;;17.45;15.20;;;8.20;99.90;;;;;;5059838;28;20067;-65
2022/11/17 04:56:21;;;;;;;16.70;13.48;;;8.10;99.90;;;;;;5055629;28;20117;-65
2022/11/17 04:58:47;;;;;;;16.20;13.30;;;8.20;99.90;;;;;;5089501;28;20079;-65
2022/11/17 05:01:15;;;;;;;16.77;13.43;;;8.10;99.90;;;;;;5072172;28;20052;-64
2022/11/17 05:03:45;;;;;;;15.50;12.93;;;8.10;99.90;;;;;;5071630;28;20052;-65
2022/11/17 05:06:17;;;;;;;15.95;13.18;;;8.00;99.90;;;;;;5090569;28;20108;-65
2022/11/17 05:08:43;;;;;;;16.27;13.35;;;7.90;99.90;;;;;;5057858;28;20067;-64
2022/11/17 05:13:55;;;;;;;14.35;12.80;;;8.00;99.90;;;;;;5070626;28;20439;-65
2022/11/17 05:19:08;;;;;;;14.90;12.10;;;8.00;99.90;;;;;;5054252;28;20117;-65
2022/11/17 05:21:33;;;;;;;14.45;12.18;;;8.00;99.90;;;;;;5086718;28;20047;-64
2022/11/17 05:23:59;;;;;;;14.60;11.95;;;8.00;99.90;;;;;;5086042;28;20433;-65
2022/11/17 05:26:27;;;;;;;17.00;12.50;;;8.00;99.90;;;;;;5086737;28;20063;-64
2022/11/17 05:28:58;;;;;;;14.40;12.40;;;7.90;99.90;;;;;;5087386;28;20084;-65
2022/11/17 05:31:24;;;;;;;14.68;12.13;;;7.90;99.90;;;;;;5070591;28;20096;-65
2022/11/17 05:33:50;;;;;;;14.68;11.70;;;7.90;99.90;;;;;;5065873;28;20137;-65
2022/11/17 05:36:16;;;;;;;13.30;11.75;;;7.90;99.90;;;;;;5051031;28;20063;-65
2022/11/17 05:38:42;;;;;;;13.85;11.57;;;8.00;99.90;;;;;;5042005;28;20147;-64
2022/11/17 05:41:08;;;;;;;13.50;11.00;;;7.90;99.90;;;;;;5057087;28;20545;-65
2022/11/17 05:43:33;;;;;;;13.68;11.45;;;8.00;99.90;;;;;;5037480;28;20061;-65
2022/11/17 05:45:59;;;;;;;12.65;11.23;;;7.90;99.90;;;;;;5067097;28;20045;-63
2022/11/17 05:48:25;;;;;;;11.50;10.20;;;7.90;99.90;;;;;;5046385;28;20072;-63
2022/11/17 05:50:52;;;;;;;12.30;10.18;;;7.80;99.90;;;;;;5045008;28;20053;-63
2022/11/17 05:53:19;;;;;;;11.88;10.18;;;7.80;99.90;;;;;;5047802;28;20582;-65
2022/11/17 05:55:44;;;;;;;12.27;10.85;;;7.80;99.90;;;;;;5032530;28;20072;-66
2022/11/17 05:58:28;;;;;;;11.30;9.60;;;7.80;99.90;;;;;;5064016;28;20041;-66
2022/11/17 06:00:55;;;;;;;12.10;9.75;;;7.80;99.90;;;;;;5077746;28;20075;-65
2022/11/17 06:03:28;;;;;;;11.50;10.00;;;7.80;99.90;;;;;;5045209;28;20053;-65
2022/11/17 06:05:54;;;;;;;12.13;10.10;;;7.80;99.90;;;;;;5069396;28;20048;-65
2022/11/17 06:08:20;;;;;;;13.02;10.57;;;7.80;99.90;;;;;;5046596;28;20053;-65
2022/11/17 06:10:46;;;;;;;10.70;9.13;;;7.90;99.90;;;;;;5048073;28;20041;-65
2022/11/17 06:13:12;;;;;;;11.32;9.27;;;7.80;99.90;;;;;;5048398;28;20052;-65
2022/11/17 06:15:38;;;;;;;10.98;9.10;;;7.70;99.90;;;;;;5069282;28;20074;-66
2022/11/17 06:18:15;;;;;;;10.45;9.18;;;7.70;99.90;;;;;;5067613;28;20045;-66
2022/11/17 06:20:47;;;;;;;11.25;9.48;;;7.80;99.90;;;;;;5048277;28;20048;-65
2022/11/17 06:23:16;;;;;;;9.73;8.73;;;7.70;99.90;;;;;;5065059;28;20048;-65
2022/11/17 06:25:42;;;;;;;10.90;9.80;;;7.80;99.90;;;;;;5057845;28;20484;-67
2022/11/17 06:28:11;;;;;;;10.80;9.50;;;7.70;99.90;;;;;;5029879;28;20075;-63
2022/11/17 06:30:38;;;;;;;10.95;8.85;;;7.80;99.90;;;;;;5050943;28;20619;-67
2022/11/17 06:33:07;;;;;;;12.27;9.95;;;7.70;99.90;;;;;;5051720;28;20120;-64
2022/11/17 06:35:34;;;;;;;9.95;8.95;;;7.70;99.90;;;;;;4999131;28;20457;-65
2022/11/17 06:38:01;;;;;;;11.23;9.05;;;7.70;99.90;;;;;;5042708;28;20053;-63
2022/11/17 06:40:27;;;;;;;9.88;8.85;;;7.70;99.90;;;;;;5048139;28;20064;-64
2022/11/17 06:43:02;;;;;;;11.32;9.30;;;7.70;99.90;;;;;;5081055;28;20198;-64
2022/11/17 06:45:32;;;;;;;10.73;9.18;;;7.70;99.90;;;;;;5078076;28;20098;-64
2022/11/17 06:47:57;;;;;;;10.32;9.32;;;7.80;99.90;;;;;;5064179;28;20116;-64
2022/11/17 06:50:23;;;;;;;10.80;9.52;;;7.80;99.90;;;;;;5082121;28;20079;-64
2022/11/17 06:52:48;;;;;;;10.05;9.05;;;7.80;99.90;;;;;;5077355;28;20060;-64
2022/11/17 06:55:14;;;;;;;10.07;9.07;;;7.70;99.90;;;;;;5051621;28;20254;-64
2022/11/17 06:57:40;;;;;;;10.77;8.95;;;7.70;99.90;;;;;;5057404;28;20110;-64
2022/11/17 07:00:06;;;;;;;9.98;8.98;;;7.80;99.90;;;;;;5068635;28;20048;-65
2022/11/17 07:02:32;;;;;;;9.88;8.88;;;7.80;99.90;;;;;;5045674;28;20052;-64
2022/11/17 07:04:58;;;;;;;9.70;8.30;;;7.80;99.90;;;;;;5086497;28;20033;-63
2022/11/17 07:07:23;;;;;;;9.10;8.10;;;7.60;99.90;;;;;;5071887;28;20064;-64
2022/11/17 07:09:49;;;;;;;9.45;8.10;;;7.80;99.90;;;;;;5068115;28;20052;-64
2022/11/17 07:12:15;;;;;;;9.98;8.98;;;7.70;99.90;;;;;;5073178;28;20078;-64
2022/11/17 07:14:41;;;;;;;10.35;9.30;;;7.70;99.90;;;;;;5068788;28;20055;-64
2022/11/17 07:17:06;;;;;;;10.13;8.80;;;7.70;99.90;;;;;;5052893;28;20080;-64
2022/11/17 07:19:32;;;;;;;9.15;8.25;;;7.90;99.90;;;;;;5070414;28;20595;-64
2022/11/17 07:21:58;;;;;;;10.77;8.82;;;7.80;99.90;;;;;;5071710;28;20047;-64
2022/11/17 07:24:24;;;;;;;9.27;8.15;;;7.80;99.90;;;;;;5088878;28;20115;-64
2022/11/17 07:26:49;;;;;;;9.80;8.77;;;7.80;99.90;;;;;;5083498;28;20119;-64
2022/11/17 07:29:15;;;;;;;8.88;7.97;;;7.80;99.90;;;;;;5060746;28;20044;-64
2022/11/17 07:31:42;;;;;;;9.15;8.23;;;7.90;99.90;;;;;;5082702;28;20060;-63
2022/11/17 07:34:07;;;;;;;9.10;8.02;;;7.80;99.90;;;;;;5073431;28;20048;-63
2022/11/17 07:36:33;;;;;;;9.23;8.23;;;7.70;99.90;;;;;;5075356;28;20527;-64
2022/11/17 07:38:59;;;;;;;8.32;7.38;;;7.80;99.90;;;;;;5050325;28;20051;-64
2022/11/17 07:41:24;;;;;;;8.52;7.47;;;7.70;99.90;;;;;;5091882;28;20040;-64
2022/11/17 07:43:50;;;;;;;16.33;13.50;;;7.70;99.90;;;;;;5084255;28;20052;-64
2022/11/17 07:46:16;;;;;;;11.35;10.02;;;7.60;99.90;;;;;;5062979;28;20036;-64
2022/11/17 07:48:42;;;;;;;16.15;12.73;;;7.60;99.90;;;;;;5086096;28;20166;-64
2022/11/17 07:51:08;;;;;;;11.52;10.32;;;7.60;99.90;;;;;;5076023;28;20051;-64
2022/11/17 07:53:34;;;;;;;9.82;8.82;;;7.60;99.90;;;;;;5089893;28;20066;-64
2022/11/17 07:56:05;;;;;;;11.18;9.73;;;7.60;99.90;;;;;;5082933;28;20052;-64
2022/11/17 07:58:31;;;;;;;8.98;7.50;;;7.60;99.90;;;;;;5081045;28;20053;-64
2022/11/17 08:00:57;;;;;;;9.23;8.25;;;7.60;99.90;;;;;;5090106;28;20106;-64
2022/11/17 08:03:23;;;;;;;9.20;8.30;;;7.70;99.90;;;;;;5066690;28;20056;-64
2022/11/17 08:05:49;;;;;;;9.63;8.63;;;7.70;99.90;;;;;;5066327;28;20500;-64
2022/11/17 08:08:15;;;;;;;9.68;8.63;;;7.80;99.90;;;;;;5087913;28;20560;-64
2022/11/17 08:10:44;;;;;;;9.93;8.75;;;7.70;99.90;;;;;;5064661;28;20074;-64
2022/11/17 08:13:10;;;;;;;9.77;8.73;;;7.70;99.90;;;;;;5066728;28;20518;-64
2022/11/17 08:15:35;;;;;;;8.88;7.75;;;7.70;99.90;;;;;;5068581;28;20106;-64
2022/11/17 08:18:01;;;;;;;9.13;8.23;;;7.70;99.90;;;;;;5085455;28;20056;-65
2022/11/17 08:20:28;;;;;;;10.63;8.27;;;7.90;99.90;;;;;;5063820;28;20041;-68
2022/11/17 08:22:55;;;;;;;9.30;8.40;;;7.70;99.90;;;;;;5084921;28;20104;-68
2022/11/17 08:25:22;;;;;;;9.00;8.10;;;7.80;99.90;;;;;;5062074;28;20080;-67
2022/11/17 08:27:50;;;;;;;10.63;7.75;;;7.70;99.90;;;;;;5087681;28;20056;-67
2022/11/17 08:30:19;;;;;;;9.75;8.65;;;7.80;99.90;;;;;;5110080;28;20071;-67
2022/11/17 08:32:48;;;;;;;9.43;8.40;;;7.80;99.90;;;;;;5077821;28;20174;-66
2022/11/17 08:35:14;;;;;;;9.23;8.23;;;7.70;99.90;;;;;;5057544;28;20103;-67
2022/11/17 08:37:40;;;;;;;10.15;8.75;;;7.80;99.90;;;;;;5038265;28;20062;-68
2022/11/17 08:40:06;;;;;;;9.70;8.70;;;7.80;99.90;;;;;;5022991;28;20399;-67
2022/11/17 08:42:32;;;;;;;10.95;8.65;;;7.70;99.90;;;;;;5058151;28;20072;-67
2022/11/17 08:44:59;;;;;;;9.70;8.70;;;7.80;99.90;;;;;;5054981;28;20075;-67
2022/11/17 08:47:25;;;;;;;10.15;9.15;;;7.80;99.90;;;;;;5054874;28;20044;-66
2022/11/17 08:49:50;;;;;;;10.60;8.90;;;7.70;99.90;;;;;;5051698;28;20460;-70
2022/11/17 08:52:18;;;;;;;10.88;8.95;;;7.70;99.90;;;;;;5034935;28;20079;-66
2022/11/17 08:54:44;;;;;;;10.45;8.93;;;7.80;99.90;;;;;;5052979;28;20047;-73
2022/11/17 08:57:09;;;;;;;10.48;9.00;;;7.70;99.90;;;;;;5035377;28;20054;-64
2022/11/17 08:59:35;;;;;;;12.00;8.95;;;7.80;99.90;;;;;;5057421;28;20049;-66
2022/11/17 09:02:01;;;;;;;11.35;8.30;;;7.70;99.90;;;;;;5054395;28;20412;-66
2022/11/17 09:04:26;;;;;;;10.70;9.15;;;7.70;99.90;;;;;;5075346;28;20048;-65
2022/11/17 09:06:52;;;;;;;9.63;8.23;;;7.70;99.90;;;;;;5050582;28;20056;-67
2022/11/17 09:09:18;;;;;;;8.90;7.97;;;7.70;99.90;;;;;;5076692;28;20055;-67
2022/11/17 09:11:44;;;;;;;9.60;7.97;;;7.80;99.90;;;;;;5060454;28;20072;-65
2022/11/17 09:14:09;;;;;;;8.50;7.63;;;7.60;99.90;;;;;;5049863;28;20052;-65
2022/11/17 09:16:35;;;;;;;7.10;6.35;;;7.80;99.90;;;;;;5046482;28;20090;-69
2022/11/17 09:19:01;;;;;;;7.60;6.70;;;7.80;99.90;;;;;;5052702;28;20052;-64
2022/11/17 09:21:29;;;;;;;7.25;6.55;;;7.80;99.90;;;;;;5065473;28;20094;-64
2022/11/17 09:23:55;;;;;;;6.65;6.05;;;7.70;99.90;;;;;;5068765;28;20587;-66
2022/11/17 09:26:21;;;;;;;7.78;6.85;;;7.70;99.90;;;;;;5030086;28;20110;-65
2022/11/17 09:28:47;;;;;;;7.80;6.80;;;7.70;99.90;;;;;;5065947;28;20052;-65
2022/11/17 09:31:19;;;;;;;7.95;7.15;;;7.70;99.90;;;;;;5043038;28;20095;-65
2022/11/17 09:33:45;;;;;;;6.90;6.20;;;7.70;99.90;;;;;;5079430;28;20078;-65
2022/11/17 09:36:12;;;;;;;7.45;6.65;;;7.70;99.90;;;;;;5042239;28;20057;-65
2022/11/17 09:38:39;;;;;;;6.68;6.07;;;7.70;99.90;;;;;;5079422;28;20047;-68
2022/11/17 09:41:26;;;;;;;7.90;6.38;;;7.60;99.90;;;;;;5052610;28;20685;-65
2022/11/17 09:44:14;;;;;;;6.95;6.25;;;7.70;99.90;;;;;;5090435;28;20047;-65
2022/11/17 09:46:48;;;;;;;6.88;6.18;;;7.70;99.90;;;;;;5066044;28;20056;-65
2022/11/17 09:49:26;;;;;;;13.63;8.68;;;7.70;99.90;;;;;;5091972;28;20067;-65
2022/11/17 09:51:59;;;;;;;34.65;12.93;;;7.80;99.90;;;;;;5062949;28;20048;-65
2022/11/17 09:54:48;;;;;;;15.35;10.20;;;7.80;99.90;;;;;;5058211;28;20741;-65
2022/11/17 09:57:44;;;;;;;8.75;6.85;;;7.70;99.90;;;;;;5054224;28;20059;-66
2022/11/17 10:00:15;;;;;;;7.85;7.05;;;7.70;99.90;;;;;;5086689;28;20057;-65
2022/11/17 10:02:42;;;;;;;8.27;6.93;;;7.70;99.90;;;;;;5073191;28;20059;-65
2022/11/17 10:05:27;;;;;;;7.40;6.63;;;7.80;99.90;;;;;;5089271;28;20096;-65
2022/11/17 10:07:58;;;;;;;7.82;6.82;;;7.70;99.90;;;;;;5071221;28;20395;-65
2022/11/17 10:10:33;;;;;;;8.25;7.18;;;7.70;99.90;;;;;;5086288;28;20044;-67
2022/11/17 10:13:00;;;;;;;6.88;6.28;;;7.80;99.90;;;;;;5075176;28;20360;-66
2022/11/17 10:15:39;;;;;;;7.45;6.70;;;7.80;99.90;;;;;;5087145;28;20044;-66
2022/11/17 10:18:12;;;;;;;9.47;6.60;;;7.80;99.90;;;;;;5074831;28;20527;-66
2022/11/17 10:20:39;;;;;;;6.97;6.00;;;7.80;99.90;;;;;;5083275;28;20181;-65
2022/11/17 10:23:06;;;;;;;6.80;6.10;;;7.90;99.90;;;;;;5077046;28;20515;-66
2022/11/17 10:25:38;;;;;;;6.47;5.78;;;7.90;99.90;;;;;;5085410;28;20524;-66
2022/11/17 10:28:21;;;;;;;7.10;6.40;;;7.90;99.90;;;;;;5060856;28;20048;-66
2022/11/17 10:31:09;;;;;;;6.93;5.60;;;7.90;99.90;;;;;;5082715;28;20045;-66
2022/11/17 10:33:42;;;;;;;6.53;5.63;;;7.80;99.90;;;;;;5086358;28;20146;-66
2022/11/17 10:36:21;;;;;;;8.73;7.07;;;7.80;99.90;;;;;;5068329;28;20146;-65
2022/11/17 10:38:53;;;;;;;7.80;6.35;;;7.80;99.90;;;;;;5074673;28;20056;-65
2022/11/17 10:41:41;;;;;;;7.80;6.93;;;7.80;99.90;;;;;;5045155;28;20118;-66
2022/11/17 10:44:26;;;;;;;6.25;5.22;;;7.80;99.90;;;;;;5046735;28;20044;-65
2022/11/17 10:47:00;;;;;;;6.82;5.85;;;7.80;99.90;;;;;;5044096;28;20111;-67
2022/11/17 10:49:29;;;;;;;6.35;5.05;;;7.80;99.90;;;;;;5086930;28;20056;-66
2022/11/17 10:52:10;;;;;;;6.45;5.85;;;7.80;99.90;;;;;;5054778;28;20059;-66
2022/11/17 10:54:37;;;;;;;6.38;5.70;;;7.90;99.90;;;;;;5044039;28;20056;-64
2022/11/17 10:57:14;;;;;;;5.70;5.03;;;7.90;99.90;;;;;;5086983;28;20036;-66
2022/11/17 10:59:56;;;;;;;6.10;5.07;;;7.80;99.90;;;;;;5063388;28;20060;-66
2022/11/17 11:02:42;;;;;;;5.78;5.18;;;7.70;99.90;;;;;;5083456;28;20064;-67
2022/11/17 11:05:07;;;;;;;6.40;5.38;;;7.80;99.90;;;;;;5055475;28;20114;-67
2022/11/17 11:07:34;;;;;;;5.45;4.75;;;7.80;99.90;;;;;;5063885;28;20135;-66
2022/11/17 11:10:06;;;;;;;6.10;5.35;;;7.80;99.90;;;;;;5070302;28;20071;-66
2022/11/17 11:12:42;;;;;;;5.53;5.03;;;7.80;99.90;;;;;;5050332;28;20075;-67
2022/11/17 11:15:17;;;;;;;5.65;5.05;;;7.80;99.90;;;;;;5057349;28;20079;-67
2022/11/17 11:17:43;;;;;;;6.68;5.93;;;7.90;99.90;;;;;;5038220;28;20051;-66
2022/11/17 11:20:13;;;;;;;6.50;5.75;;;7.70;99.90;;;;;;5057152;28;20040;-66
2022/11/17 11:22:53;;;;;;;5.72;5.22;;;7.70;99.90;;;;;;5069382;28;20056;-66
2022/11/17 11:25:45;;;;;;;6.25;5.60;;;7.80;99.90;;;;;;5072389;28;20036;-66
2022/11/17 11:28:35;;;;;;;6.10;5.50;;;7.80;99.90;;;;;;5067721;28;20069;-65
2022/11/17 11:31:21;;;;;;;6.88;5.65;;;7.80;99.90;;;;;;5072594;28;20067;-66
2022/11/17 11:33:53;;;;;;;6.20;5.55;;;7.90;99.90;;;;;;5044977;28;20156;-65
2022/11/17 11:36:49;;;;;;;6.95;5.72;;;8.00;99.90;;;;;;5065669;28;20037;-65
2022/11/17 11:39:51;;;;;;;9.98;5.85;;;7.90;99.90;;;;;;5071848;28;20054;-64
2022/11/17 11:42:42;;;;;;;10.63;6.80;;;7.90;99.90;;;;;;5069021;28;20045;-65
2022/11/17 11:45:17;;;;;;;6.85;5.78;;;7.90;99.90;;;;;;5068900;28;20048;-66
2022/11/17 11:48:06;;;;;;;8.60;6.15;;;8.00;99.90;;;;;;5089771;28;20044;-65
2022/11/17 11:50:48;;;;;;;16.40;11.05;;;8.00;99.90;;;;;;5072984;28;20063;-66
2022/11/17 11:53:24;;;;;;;10.32;7.93;;;8.00;99.90;;;;;;5078332;28;20125;-65
2022/11/17 11:56:00;;;;;;;8.20;6.30;;;8.00;99.90;;;;;;5071936;28;20048;-65
2022/11/17 11:58:25;;;;;;;7.72;6.28;;;8.00;99.90;;;;;;5063739;28;20062;-65
2022/11/17 12:01:11;;;;;;;18.77;10.77;;;8.00;99.90;;;;;;5069396;28;20491;-65
2022/11/17 12:03:48;;;;;;;11.45;7.75;;;8.00;99.90;;;;;;5061147;28;20055;-64
2022/11/17 12:06:40;;;;;;;8.18;5.90;;;8.10;99.90;;;;;;5069394;28;20053;-65
2022/11/17 12:09:08;;;;;;;14.25;8.27;;;8.00;99.90;;;;;;5085561;28;20063;-65
2022/11/17 12:11:59;;;;;;;12.77;8.82;;;8.00;99.90;;;;;;5057631;28;20045;-65
2022/11/17 12:14:25;;;;;;;;;;;8.00;99.90;;;;;;5065143;28;20060;-65
2022/11/17 12:17:01;;;;;;;12.40;8.23;;;8.00;99.90;;;;;;5080597;28;20323;-66
2022/11/17 12:19:48;;;;;;;11.50;8.40;;;8.00;99.90;;;;;;5085641;28;20047;-67
2022/11/17 12:22:28;;;;;;;10.95;7.93;;;8.00;99.90;;;;;;5080736;28;20098;-66
2022/11/17 12:25:18;;;;;;;7.72;6.13;;;8.10;99.90;;;;;;5068654;28;20056;-67
2022/11/17 12:27:51;;;;;;;6.15;5.28;;;8.00;99.90;;;;;;5052620;28;20044;-67
2022/11/17 12:30:32;;;;;;;7.28;5.50;;;8.10;99.90;;;;;;5077536;28;20071;-67
2022/11/17 12:32:59;;;;;;;6.38;5.30;;;8.10;99.90;;;;;;5072603;28;20150;-66
2022/11/17 12:35:26;;;;;;;7.50;6.38;;;8.10;99.90;;;;;;5056269;28;20564;-68
2022/11/17 12:38:16;;;;;;;6.78;5.25;;;8.00;99.90;;;;;;5050355;28;20045;-67
2022/11/17 12:40:49;;;;;;;;;;;8.10;99.90;;;;;;5059764;28;20053;-67
2022/11/17 12:43:15;;;;;;;7.40;5.35;;;8.10;99.90;;;;;;5038411;28;19924;-67
2022/11/17 12:45:58;;;;;;;5.63;4.65;;;8.10;99.90;;;;;;5053903;28;20413;-67
2022/11/17 12:48:29;;;;;;;7.03;5.18;;;8.10;99.90;;;;;;5055383;28;20083;-66
2022/11/17 12:51:22;;;;;;;4.82;4.30;;;8.20;99.90;;;;;;5053619;28;20094;-67
2022/11/17 12:53:54;;;;;;;5.90;4.88;;;8.10;99.90;;;;;;5043254;28;20106;-67
2022/11/17 12:56:31;;;;;;;7.80;5.45;;;8.20;99.90;;;;;;5033228;28;20041;-67
2022/11/17 12:59:15;;;;;;;13.68;8.65;;;8.20;99.90;;;;;;5041064;28;20528;-66
2022/11/17 13:02:02;;;;;;;5.47;4.82;;;8.20;99.90;;;;;;5044122;28;20044;-67
2022/11/17 13:04:43;;;;;;;7.55;5.28;;;8.20;99.90;;;;;;5045259;28;20316;-67
2022/11/17 13:07:19;;;;;;;6.25;4.57;;;8.20;99.90;;;;;;5040859;28;20033;-67
2022/11/17 13:09:50;;;;;;;13.40;8.57;;;8.10;99.90;;;;;;5041385;28;20409;-67
2022/11/17 13:12:21;;;;;;;10.13;7.53;;;8.10;99.90;;;;;;5046711;28;20068;-67
2022/11/17 13:14:53;;;;;;;9.25;6.88;;;8.10;99.90;;;;;;5051545;28;20069;-66
2022/11/17 13:17:25;;;;;;;7.90;5.90;;;8.10;99.90;;;;;;5053073;28;20064;-67
2022/11/17 13:20:24;;;;;;;6.82;5.93;;;8.10;99.90;;;;;;5047913;28;20089;-67
2022/11/17 13:23:05;;;;;;;8.05;6.30;;;8.20;99.90;;;;;;5009125;28;20114;-68
2022/11/17 13:25:31;;;;;;;6.65;5.60;;;8.20;99.90;;;;;;5048418;28;20072;-67
2022/11/17 13:27:57;;;;;;;7.95;6.35;;;8.20;99.90;;;;;;5035000;28;20052;-67
2022/11/17 13:30:27;;;;;;;13.50;7.68;;;8.30;99.90;;;;;;5058641;28;20595;-67
2022/11/17 13:32:55;;;;;;;10.32;7.00;;;8.30;99.90;;;;;;5066787;28;20052;-67
2022/11/17 13:35:32;;;;;;;15.43;9.23;;;8.30;99.90;;;;;;5044902;28;20489;-67